createdAt,value
2022-10-05T00:02:05.209Z,7.87
2022-10-05T00:04:33.472Z,7.87
2022-10-05T00:07:03.545Z,7.43
2022-10-05T00:09:31.544Z,7.57
2022-10-05T00:12:00.478Z,7.50
2022-10-05T00:14:29.408Z,7.60
2022-10-05T00:16:57.280Z,7.80
2022-10-05T00:19:28.972Z,8.23
2022-10-05T00:21:57.859Z,7.67
2022-10-05T00:24:25.425Z,8.00
2022-10-05T00:26:57.777Z,8.90
2022-10-05T00:29:27.177Z,8.10
2022-10-05T00:31:54.811Z,9.27
2022-10-05T00:34:23.233Z,9.10
2022-10-05T00:36:50.792Z,9.13
2022-10-05T00:39:19.008Z,8.53
2022-10-05T00:42:10.915Z,8.30
2022-10-05T00:44:42.628Z,8.37
2022-10-05T00:47:22.457Z,8.23
2022-10-05T00:50:06.854Z,8.13
2022-10-05T00:52:41.911Z,7.67
2022-10-05T00:55:13.050Z,8.13
2022-10-05T00:57:45.652Z,7.80
2022-10-05T01:00:16.912Z,7.93
2022-10-05T01:02:51.602Z,9.40
2022-10-05T01:05:25.215Z,8.20
2022-10-05T01:08:00.704Z,9.83
2022-10-05T01:10:31.039Z,8.77
2022-10-05T01:13:03.510Z,8.97
2022-10-05T01:15:36.678Z,8.43
2022-10-05T01:18:06.850Z,7.80
2022-10-05T01:20:40.259Z,7.97
2022-10-05T01:23:41.072Z,8.37
2022-10-05T01:26:13.677Z,6.80
2022-10-05T01:28:45.577Z,6.50
2022-10-05T01:31:19.947Z,6.30
2022-10-05T01:33:52.113Z,6.10
2022-10-05T01:36:25.738Z,6.20
2022-10-05T01:38:56.390Z,6.60
2022-10-05T01:41:30.672Z,6.10
2022-10-05T01:44:01.374Z,6.47
2022-10-05T01:46:34.420Z,6.23
2022-10-05T01:49:16.049Z,5.90
2022-10-05T01:51:46.837Z,6.47
2022-10-05T01:54:20.353Z,5.93
2022-10-05T01:56:52.749Z,6.00
2022-10-05T01:59:26.596Z,5.73
2022-10-05T02:01:58.646Z,5.60
2022-10-05T02:05:00.423Z,5.77
2022-10-05T02:07:22.059Z,5.87
2022-10-05T02:09:53.844Z,5.33
2022-10-05T02:12:25.066Z,4.90
2022-10-05T02:14:57.812Z,5.07
2022-10-05T02:17:28.334Z,5.57
2022-10-05T02:19:59.761Z,5.50
2022-10-05T02:22:30.702Z,5.53
2022-10-05T02:24:59.855Z,5.67
2022-10-05T02:27:30.868Z,6.60
2022-10-05T02:30:02.694Z,6.63
2022-10-05T02:32:37.535Z,7.47
2022-10-05T02:35:08.107Z,7.13
2022-10-05T02:37:39.149Z,7.13
2022-10-05T02:40:14.372Z,7.70
2022-10-05T02:42:48.649Z,7.87
2022-10-05T02:45:24.167Z,7.87
2022-10-05T02:47:57.738Z,7.97
2022-10-05T02:50:27.917Z,7.33
2022-10-05T02:53:01.704Z,9.30
2022-10-05T02:55:32.676Z,7.77
2022-10-05T02:58:04.748Z,6.80
2022-10-05T03:00:35.932Z,7.33
2022-10-05T03:03:07.334Z,9.00
2022-10-05T03:05:38.990Z,8.60
2022-10-05T03:08:09.901Z,6.73
2022-10-05T03:10:40.545Z,6.67
2022-10-05T03:13:10.609Z,7.13
2022-10-05T03:15:53.107Z,6.60
2022-10-05T03:18:30.792Z,5.60
2022-10-05T03:21:05.060Z,5.37
2022-10-05T03:23:36.894Z,5.53
2022-10-05T03:26:13.002Z,5.10
2022-10-05T03:28:47.164Z,4.83
2022-10-05T03:31:18.730Z,4.90
2022-10-05T03:33:49.897Z,5.53
2022-10-05T03:36:23.480Z,5.20
2022-10-05T03:38:54.285Z,5.67
2022-10-05T03:41:26.422Z,5.63
2022-10-05T03:44:08.993Z,5.80
2022-10-05T03:46:43.056Z,5.50
2022-10-05T03:49:16.785Z,5.10
2022-10-05T03:51:46.593Z,5.20
2022-10-05T03:54:18.624Z,4.70
2022-10-05T03:56:49.992Z,4.63
2022-10-05T03:59:19.688Z,4.33
2022-10-05T04:01:50.493Z,4.40
2022-10-05T04:04:23.962Z,4.60
2022-10-05T04:06:53.239Z,4.63
2022-10-05T04:09:24.424Z,4.63
2022-10-05T04:11:53.919Z,4.73
2022-10-05T04:14:23.708Z,5.43
2022-10-05T04:16:56.249Z,5.10
2022-10-05T04:19:26.886Z,5.10
2022-10-05T04:21:57.110Z,5.20
2022-10-05T04:24:28.222Z,5.63
2022-10-05T04:26:57.440Z,5.30
2022-10-05T04:29:30.941Z,4.90
2022-10-05T04:32:04.661Z,5.60
2022-10-05T04:34:43.041Z,5.50
2022-10-05T04:37:15.593Z,5.60
2022-10-05T04:39:47.221Z,5.20
2022-10-05T04:42:21.934Z,5.60
2022-10-05T04:44:59.123Z,6.33
2022-10-05T04:47:39.262Z,5.37
2022-10-05T04:50:18.656Z,5.73
2022-10-05T04:53:03.765Z,6.27
2022-10-05T04:55:34.929Z,7.57
2022-10-05T04:58:06.772Z,7.67
2022-10-05T05:00:41.477Z,7.80
2022-10-05T05:03:20.994Z,8.97
2022-10-05T05:06:16.417Z,7.60
2022-10-05T05:08:55.232Z,8.23
2022-10-05T05:11:28.071Z,9.70
2022-10-05T05:14:07.245Z,7.13
2022-10-05T05:16:36.994Z,7.83
2022-10-05T05:19:13.505Z,7.90
2022-10-05T05:21:46.698Z,7.23
2022-10-05T05:24:19.479Z,6.63
2022-10-05T05:26:55.461Z,7.33
2022-10-05T05:29:28.677Z,7.07
2022-10-05T05:31:59.813Z,7.13
2022-10-05T05:34:34.544Z,6.60
2022-10-05T05:37:08.876Z,6.60
2022-10-05T05:39:42.924Z,6.33
2022-10-05T05:42:21.219Z,7.87
2022-10-05T05:44:50.608Z,6.10
2022-10-05T05:47:20.493Z,6.23
2022-10-05T05:49:55.435Z,6.87
2022-10-05T05:52:28.592Z,7.10
2022-10-05T05:54:58.858Z,6.77
2022-10-05T05:57:29.070Z,5.80
2022-10-05T06:00:06.101Z,5.93
2022-10-05T06:02:50.558Z,5.70
2022-10-05T06:05:25.052Z,6.30
2022-10-05T06:07:54.879Z,5.00
2022-10-05T06:10:27.228Z,5.20
2022-10-05T06:13:07.280Z,5.30
2022-10-05T06:15:37.668Z,5.40
2022-10-05T06:18:09.652Z,5.50
2022-10-05T06:20:40.085Z,5.30
2022-10-05T06:23:13.337Z,5.10
2022-10-05T06:25:45.508Z,5.80
2022-10-05T06:28:13.688Z,5.80
2022-10-05T06:30:50.400Z,4.90
2022-10-05T06:33:23.192Z,5.13
2022-10-05T06:35:57.791Z,4.97
2022-10-05T06:38:34.514Z,4.73
2022-10-05T06:41:08.393Z,5.20
2022-10-05T06:43:43.786Z,4.90
2022-10-05T06:46:35.141Z,4.60
2022-10-05T06:49:40.104Z,5.17
2022-10-05T06:52:41.745Z,6.00
2022-10-05T06:55:16.244Z,6.13
2022-10-05T06:57:58.872Z,5.90
2022-10-05T07:00:29.820Z,5.50
2022-10-05T07:03:01.395Z,5.87
2022-10-05T07:05:46.716Z,6.80
2022-10-05T07:08:16.302Z,6.57
2022-10-05T07:10:50.298Z,6.27
2022-10-05T07:13:30.501Z,6.63
2022-10-05T07:16:00.274Z,6.83
2022-10-05T07:18:34.930Z,6.47
2022-10-05T07:21:07.332Z,7.40
2022-10-05T07:23:43.685Z,7.10
2022-10-05T07:26:15.587Z,7.97
2022-10-05T07:28:46.564Z,8.20
2022-10-05T07:31:19.527Z,9.60
2022-10-05T07:33:49.716Z,8.90
2022-10-05T07:36:38.421Z,8.37
2022-10-05T07:39:10.055Z,7.73
2022-10-05T07:41:43.558Z,7.67
2022-10-05T07:44:14.158Z,7.80
2022-10-05T07:46:51.119Z,7.93
2022-10-05T07:49:24.435Z,8.23
2022-10-05T07:51:53.838Z,8.40
2022-10-05T07:54:23.114Z,8.30
2022-10-05T07:56:55.882Z,8.17
2022-10-05T07:59:27.327Z,8.07
2022-10-05T08:01:57.660Z,8.60
2022-10-05T08:04:28.372Z,8.17
2022-10-05T08:06:57.661Z,8.53
2022-10-05T08:09:36.742Z,8.80
2022-10-05T08:12:22.312Z,8.77
2022-10-05T08:14:53.829Z,8.40
2022-10-05T08:17:27.022Z,8.20
2022-10-05T08:19:59.113Z,8.87
2022-10-05T08:22:29.245Z,7.80
2022-10-05T08:25:00.240Z,7.13
2022-10-05T08:27:31.744Z,7.50
2022-10-05T08:30:01.480Z,6.60
2022-10-05T08:32:31.508Z,8.00
2022-10-05T08:35:02.591Z,8.30
2022-10-05T08:37:32.552Z,8.50
2022-10-05T08:40:05.296Z,8.50
2022-10-05T08:42:49.152Z,8.63
2022-10-05T08:45:40.508Z,8.33
2022-10-05T08:48:16.484Z,7.73
2022-10-05T08:51:03.053Z,7.10
2022-10-05T08:53:43.850Z,6.87
2022-10-05T08:56:28.808Z,7.77
2022-10-05T08:59:11.521Z,7.67
2022-10-05T09:01:48.184Z,7.67
2022-10-05T09:04:25.817Z,7.77
2022-10-05T09:07:02.694Z,7.80
2022-10-05T09:09:35.989Z,7.17
2022-10-05T09:12:14.652Z,7.80
2022-10-05T09:15:07.145Z,8.20
2022-10-05T09:18:04.257Z,9.80
2022-10-05T09:20:32.314Z,11.60
2022-10-05T09:23:01.423Z,11.60
2022-10-05T09:25:41.373Z,11.77
2022-10-05T09:28:18.938Z,11.07
2022-10-05T09:30:54.110Z,9.43
2022-10-05T09:33:28.082Z,9.23
2022-10-05T09:36:09.057Z,9.60
2022-10-05T09:38:48.916Z,8.90
2022-10-05T09:41:30.865Z,8.50
2022-10-05T09:44:09.752Z,7.30
2022-10-05T09:46:51.462Z,7.00
2022-10-05T09:49:41.161Z,6.50
2022-10-05T09:52:25.378Z,6.70
2022-10-05T09:55:08.149Z,13.10
2022-10-05T09:57:49.367Z,7.53
2022-10-05T10:00:37.801Z,6.13
2022-10-05T10:03:26.825Z,6.67
2022-10-05T10:06:05.205Z,6.00
2022-10-05T10:08:37.205Z,7.43
2022-10-05T10:11:12.437Z,7.80
2022-10-05T10:13:51.995Z,8.30
2022-10-05T10:16:27.732Z,7.50
2022-10-05T10:19:15.946Z,7.57
2022-10-05T10:21:58.333Z,6.93
2022-10-05T10:24:38.460Z,6.33
2022-10-05T10:27:12.573Z,6.40
2022-10-05T10:30:04.714Z,5.83
2022-10-05T10:32:47.133Z,6.17
2022-10-05T10:35:20.964Z,5.40
2022-10-05T10:38:20.057Z,5.20
2022-10-05T10:40:55.783Z,5.37
2022-10-05T10:43:32.847Z,5.63
2022-10-05T10:46:05.743Z,5.23
2022-10-05T10:48:49.663Z,5.03
2022-10-05T10:51:19.506Z,5.07
2022-10-05T10:54:06.032Z,4.57
2022-10-05T10:56:48.384Z,4.77
2022-10-05T10:59:46.324Z,4.97
2022-10-05T11:02:37.250Z,4.47
2022-10-05T11:05:09.244Z,4.80
2022-10-05T11:07:44.644Z,5.13
2022-10-05T11:10:29.858Z,5.10
2022-10-05T11:13:13.481Z,4.77
2022-10-05T11:16:00.974Z,5.60
2022-10-05T11:18:36.865Z,5.30
2022-10-05T11:21:15.073Z,5.90
2022-10-05T11:24:09.448Z,5.27
2022-10-05T11:26:47.773Z,5.53
2022-10-05T11:29:29.294Z,5.30
2022-10-05T11:32:13.505Z,5.03
2022-10-05T11:34:53.095Z,6.00
2022-10-05T11:37:31.737Z,6.10
2022-10-05T11:40:14.752Z,5.93
2022-10-05T11:42:57.605Z,5.53
2022-10-05T11:45:29.928Z,4.90
2022-10-05T11:48:20.203Z,5.50
2022-10-05T11:50:52.704Z,4.90
2022-10-05T11:53:22.364Z,4.97
2022-10-05T11:55:57.506Z,5.00
2022-10-05T11:58:28.756Z,4.53
2022-10-05T12:00:59.665Z,5.27
2022-10-05T12:03:42.696Z,4.90
2022-10-05T12:06:21.830Z,4.70
2022-10-05T12:08:56.945Z,4.60
2022-10-05T12:11:36.910Z,4.60
2022-10-05T12:14:06.433Z,4.80
2022-10-05T12:16:41.512Z,5.10
2022-10-05T12:19:13.144Z,4.40
2022-10-05T12:21:42.816Z,4.30
2022-10-05T12:24:15.092Z,4.30
2022-10-05T12:26:45.545Z,4.43
2022-10-05T12:29:14.898Z,4.00
2022-10-05T12:31:48.514Z,4.10
2022-10-05T12:34:23.296Z,3.97
2022-10-05T12:37:08.497Z,3.90
2022-10-05T12:39:39.732Z,4.60
2022-10-05T12:42:16.845Z,5.03
2022-10-05T12:44:55.273Z,4.10
2022-10-05T12:47:28.658Z,3.80
2022-10-05T12:50:03.179Z,4.67
2022-10-05T12:52:43.265Z,4.47
2022-10-05T12:55:14.602Z,4.80
2022-10-05T12:57:49.289Z,4.80
2022-10-05T13:00:22.459Z,4.40
2022-10-05T13:02:55.997Z,4.27
2022-10-05T13:05:27.228Z,4.10
2022-10-05T13:08:01.587Z,4.37
2022-10-05T13:10:34.434Z,4.27
2022-10-05T13:13:11.582Z,3.90
2022-10-05T13:15:43.886Z,3.63
2022-10-05T13:18:18.205Z,3.03
2022-10-05T13:20:47.941Z,3.17
2022-10-05T13:23:20.862Z,2.80
2022-10-05T13:25:51.612Z,2.60
2022-10-05T13:28:22.448Z,2.30
2022-10-05T13:31:02.898Z,2.60
2022-10-05T13:33:41.701Z,2.60
2022-10-05T13:36:12.190Z,2.70
2022-10-05T13:38:45.788Z,2.63
2022-10-05T13:41:18.672Z,2.63
2022-10-05T13:43:54.361Z,2.47
2022-10-05T13:46:24.386Z,2.70
2022-10-05T13:49:00.353Z,2.60
2022-10-05T13:51:30.397Z,2.10
2022-10-05T13:54:02.068Z,1.90
2022-10-05T13:56:30.974Z,2.27
2022-10-05T13:59:04.855Z,1.97
2022-10-05T14:01:41.304Z,2.20
2022-10-05T14:04:17.826Z,1.83
2022-10-05T14:06:46.200Z,2.00
2022-10-05T14:09:15.472Z,1.97
2022-10-05T14:11:48.977Z,2.00
2022-10-05T14:14:17.931Z,1.90
2022-10-05T14:16:49.417Z,1.77
2022-10-05T14:19:21.737Z,1.70
2022-10-05T14:21:53.412Z,2.00
2022-10-05T14:24:45.501Z,1.80
2022-10-05T14:27:19.754Z,2.67
2022-10-05T14:29:53.060Z,1.90
2022-10-05T14:32:23.486Z,1.93
2022-10-05T14:35:01.498Z,1.80
2022-10-05T14:37:33.183Z,1.90
2022-10-05T14:40:04.001Z,1.90
2022-10-05T14:42:46.279Z,1.80
2022-10-05T14:45:15.690Z,1.70
2022-10-05T14:47:46.501Z,1.90
2022-10-05T14:50:18.061Z,1.70
2022-10-05T14:52:51.838Z,1.90
2022-10-05T14:55:28.254Z,1.70
2022-10-05T14:58:03.461Z,1.73
2022-10-05T15:00:33.637Z,1.55
2022-10-05T15:03:08.565Z,1.50
2022-10-05T15:05:40.410Z,1.50
2022-10-05T15:08:15.722Z,1.98
2022-10-05T15:10:44.415Z,1.60
2022-10-05T15:13:15.051Z,1.92
2022-10-05T15:15:45.478Z,1.80
2022-10-05T15:18:16.637Z,1.60
2022-10-05T15:20:52.302Z,1.40
2022-10-05T15:23:24.438Z,1.38
2022-10-05T15:25:55.105Z,1.92
2022-10-05T15:28:30.663Z,1.58
2022-10-05T15:31:02.250Z,3.28
2022-10-05T15:33:32.212Z,1.92
2022-10-05T15:36:05.282Z,1.80
2022-10-05T15:38:34.799Z,1.50
2022-10-05T15:41:08.125Z,1.58
2022-10-05T15:43:46.461Z,1.60
2022-10-05T15:46:18.010Z,1.50
2022-10-05T15:48:50.133Z,1.60
2022-10-05T15:51:31.076Z,1.73
2022-10-05T15:54:21.718Z,1.63
2022-10-05T15:56:54.541Z,1.55
2022-10-05T15:59:26.977Z,1.60
2022-10-05T16:01:57.553Z,1.48
2022-10-05T16:04:29.989Z,1.42
2022-10-05T16:07:17.218Z,1.73
2022-10-05T16:09:49.697Z,1.58
2022-10-05T16:12:23.084Z,1.70
2022-10-05T16:14:57.290Z,1.60
2022-10-05T16:17:33.734Z,1.90
2022-10-05T16:20:08.515Z,1.67
2022-10-05T16:22:43.404Z,1.90
2022-10-05T16:25:15.129Z,2.13
2022-10-05T16:28:05.761Z,2.00
2022-10-05T16:30:40.239Z,1.90
2022-10-05T16:33:11.094Z,2.10
2022-10-05T16:35:44.256Z,2.40
2022-10-05T16:38:20.281Z,4.03
2022-10-05T16:40:53.086Z,2.47
2022-10-05T16:43:26.748Z,2.53
2022-10-05T16:46:03.386Z,2.50
2022-10-05T16:48:33.505Z,2.40
2022-10-05T16:51:19.271Z,2.73
2022-10-05T16:53:50.544Z,2.13
2022-10-05T16:56:18.974Z,2.60
2022-10-05T16:58:55.968Z,2.40
2022-10-05T17:01:37.120Z,2.30
2022-10-05T17:04:12.044Z,2.30
2022-10-05T17:06:59.523Z,3.10
2022-10-05T17:09:37.553Z,2.90
2022-10-05T17:12:15.046Z,2.70
2022-10-05T17:14:50.160Z,2.53
2022-10-05T17:17:41.696Z,3.10
2022-10-05T17:20:23.545Z,2.40
2022-10-05T17:22:52.288Z,2.90
2022-10-05T17:25:26.195Z,2.80
2022-10-05T17:27:54.820Z,2.50
2022-10-05T17:30:24.337Z,2.43
2022-10-05T17:32:59.701Z,2.20
2022-10-05T17:35:50.816Z,2.40
2022-10-05T17:38:20.141Z,2.60
2022-10-05T17:41:17.828Z,2.37
2022-10-05T17:44:03.541Z,2.60
2022-10-05T17:46:45.528Z,2.97
2022-10-05T17:49:21.512Z,2.40
2022-10-05T17:52:23.510Z,3.40
2022-10-05T17:55:26.603Z,4.73
2022-10-05T17:57:54.794Z,5.27
2022-10-05T18:00:49.221Z,6.90
2022-10-05T18:03:35.231Z,4.70
2022-10-05T18:06:30.908Z,4.40
2022-10-05T18:09:28.554Z,3.27
2022-10-05T18:12:12.368Z,4.00
2022-10-05T18:14:55.106Z,4.10
2022-10-05T18:17:40.162Z,4.70
2022-10-05T18:20:18.977Z,4.57
2022-10-05T18:22:47.290Z,4.63
2022-10-05T18:25:25.860Z,4.10
2022-10-05T18:28:16.531Z,5.03
2022-10-05T18:30:57.535Z,5.83
2022-10-05T18:33:49.106Z,5.07
2022-10-05T18:36:28.205Z,5.00
2022-10-05T18:38:59.054Z,5.13
2022-10-05T18:41:32.660Z,6.30
2022-10-05T18:44:08.017Z,7.47
2022-10-05T18:46:39.888Z,5.33
2022-10-05T18:49:10.505Z,5.43
2022-10-05T18:51:43.169Z,5.90
2022-10-05T18:54:17.711Z,6.00
2022-10-05T18:56:49.621Z,5.90
2022-10-05T18:59:32.041Z,5.30
2022-10-05T19:02:06.231Z,4.73
2022-10-05T19:04:37.964Z,3.80
2022-10-05T19:07:12.358Z,3.60
2022-10-05T19:09:48.273Z,3.20
2022-10-05T19:12:20.665Z,3.17
2022-10-05T19:14:52.607Z,3.30
2022-10-05T19:17:25.663Z,3.23
2022-10-05T19:19:59.482Z,3.40
2022-10-05T19:22:32.632Z,3.47
2022-10-05T19:25:15.601Z,3.13
2022-10-05T19:27:54.433Z,3.90
2022-10-05T19:30:25.118Z,3.57
2022-10-05T19:32:59.689Z,4.17
2022-10-05T19:35:33.222Z,3.50
2022-10-05T19:38:11.767Z,3.73
2022-10-05T19:40:45.949Z,4.03
2022-10-05T19:43:19.802Z,3.90
2022-10-05T19:46:00.230Z,3.70
2022-10-05T19:48:32.824Z,3.77
2022-10-05T19:51:01.432Z,3.50
2022-10-05T19:53:30.636Z,3.50
2022-10-05T19:56:11.125Z,3.40
2022-10-05T19:58:39.952Z,3.50
2022-10-05T20:01:11.182Z,3.40
2022-10-05T20:03:40.921Z,3.17
2022-10-05T20:06:09.225Z,3.33
2022-10-05T20:08:41.773Z,3.33
2022-10-05T20:11:11.496Z,3.23
2022-10-05T20:13:39.908Z,3.60
2022-10-05T20:16:27.481Z,3.60
2022-10-05T20:19:12.680Z,4.00
2022-10-05T20:21:44.810Z,3.83
2022-10-05T20:24:13.216Z,3.90
2022-10-05T20:26:59.075Z,3.70
2022-10-05T20:29:26.617Z,3.73
2022-10-05T20:31:55.701Z,3.80
2022-10-05T20:34:23.344Z,3.60
2022-10-05T20:36:51.258Z,3.70
2022-10-05T20:39:19.373Z,3.87
2022-10-05T20:41:46.918Z,4.07
2022-10-05T20:44:14.465Z,3.80
2022-10-05T20:46:42.520Z,4.43
2022-10-05T20:49:11.463Z,4.70
2022-10-05T20:51:40.012Z,3.93
2022-10-05T20:54:08.003Z,4.10
2022-10-05T20:56:35.532Z,3.80
2022-10-05T20:59:03.068Z,3.50
2022-10-05T21:01:31.863Z,3.50
2022-10-05T21:03:59.792Z,3.40
2022-10-05T21:06:29.367Z,3.80
2022-10-05T21:08:56.960Z,3.20
2022-10-05T21:11:24.632Z,3.27
2022-10-05T21:13:53.624Z,3.87
2022-10-05T21:16:22.868Z,3.83
2022-10-05T21:18:50.464Z,4.17
2022-10-05T21:21:18.334Z,4.27
2022-10-05T21:23:47.657Z,4.87
2022-10-05T21:26:15.748Z,4.60
2022-10-05T21:28:43.358Z,5.23
2022-10-05T21:31:11.240Z,4.80
2022-10-05T21:33:38.802Z,4.10
2022-10-05T21:36:06.381Z,4.43
2022-10-05T21:38:33.923Z,4.50
2022-10-05T21:41:02.824Z,3.90
2022-10-05T21:43:30.756Z,3.33
2022-10-05T21:45:58.895Z,3.20
2022-10-05T21:48:27.157Z,2.80
2022-10-05T21:50:54.950Z,2.97
2022-10-05T21:53:23.962Z,3.20
2022-10-05T21:55:51.980Z,2.57
2022-10-05T21:58:22.399Z,2.60
2022-10-05T22:00:50.051Z,2.40
2022-10-05T22:03:17.681Z,2.27
2022-10-05T22:05:45.256Z,2.40
2022-10-05T22:08:19.848Z,2.20
2022-10-05T22:10:47.396Z,1.90
2022-10-05T22:13:15.769Z,2.07
2022-10-05T22:15:44.785Z,2.00
2022-10-05T22:18:16.352Z,2.07
2022-10-05T22:20:44.004Z,1.90
2022-10-05T22:23:11.553Z,1.90
2022-10-05T22:25:39.492Z,2.50
2022-10-05T22:28:09.503Z,2.27
2022-10-05T22:30:37.837Z,2.00
2022-10-05T22:33:06.764Z,2.20
2022-10-05T22:35:35.233Z,2.23
2022-10-05T22:38:03.105Z,2.10
2022-10-05T22:40:30.750Z,2.10
2022-10-05T22:42:58.569Z,2.17
2022-10-05T22:45:30.339Z,2.23
2022-10-05T22:47:59.910Z,2.30
2022-10-05T22:50:28.832Z,2.40
2022-10-05T22:52:56.550Z,2.40
2022-10-05T22:55:24.449Z,2.27
2022-10-05T22:57:51.988Z,2.43
2022-10-05T23:00:24.684Z,2.17
2022-10-05T23:02:55.321Z,2.20
2022-10-05T23:05:22.905Z,2.47
2022-10-05T23:07:51.817Z,2.23
2022-10-05T23:10:19.515Z,2.47
2022-10-05T23:12:58.350Z,2.37
2022-10-05T23:15:28.054Z,2.20
2022-10-05T23:17:57.318Z,2.20
2022-10-05T23:20:25.926Z,2.47
2022-10-05T23:22:54.861Z,2.50
2022-10-05T23:25:23.136Z,2.50
2022-10-05T23:27:50.717Z,2.00
2022-10-05T23:30:18.276Z,2.47
2022-10-05T23:32:45.884Z,2.57
2022-10-05T23:35:14.090Z,2.27
2022-10-05T23:37:42.393Z,2.10
2022-10-05T23:40:13.128Z,2.37
2022-10-05T23:42:41.016Z,2.10
2022-10-05T23:45:08.996Z,2.30
2022-10-05T23:47:36.569Z,2.53
2022-10-05T23:50:04.562Z,2.20
2022-10-05T23:52:32.154Z,2.47
2022-10-05T23:54:59.692Z,2.30
2022-10-05T23:57:28.589Z,2.10
2022-10-05T23:59:56.326Z,2.30
